createdAt,value
2023-04-09T00:02:06.541Z,58.40
2023-04-09T00:05:48.284Z,58.60
2023-04-09T00:09:30.444Z,58.70
2023-04-09T00:13:12.230Z,58.80
2023-04-09T00:16:54.635Z,59.00
2023-04-09T00:20:36.594Z,59.10
2023-04-09T00:24:18.488Z,59.00
2023-04-09T00:28:00.230Z,59.00
2023-04-09T00:31:42.082Z,59.10
2023-04-09T00:35:24.536Z,59.20
2023-04-09T00:39:06.258Z,59.30
2023-04-09T00:42:48.138Z,59.20
2023-04-09T00:46:31.134Z,59.30
2023-04-09T00:50:12.936Z,59.40
2023-04-09T00:53:55.971Z,59.50
2023-04-09T00:57:37.956Z,59.40
2023-04-09T01:01:19.724Z,59.50
2023-04-09T01:05:01.585Z,59.50
2023-04-09T01:09:01.586Z,59.50
2023-04-09T01:13:27.874Z,60.30
2023-04-09T01:17:48.324Z,60.80
2023-04-09T01:21:32.587Z,61.20
2023-04-09T01:25:53.037Z,59.90
2023-04-09T01:29:47.185Z,61.80
2023-04-09T01:33:30.983Z,61.30
2023-04-09T01:37:13.625Z,60.30
2023-04-09T01:40:57.446Z,60.30
2023-04-09T01:44:41.526Z,60.40
2023-04-09T01:48:24.369Z,60.60
2023-04-09T01:52:06.830Z,60.80
2023-04-09T01:55:48.577Z,60.90
2023-04-09T01:59:30.334Z,60.90
2023-04-09T02:03:23.341Z,61.10
2023-04-09T02:07:06.890Z,61.70
2023-04-09T02:10:55.403Z,61.40
2023-04-09T02:14:38.304Z,61.60
2023-04-09T02:18:24.797Z,61.60
2023-04-09T02:22:06.582Z,61.70
2023-04-09T02:25:48.521Z,61.40
2023-04-09T02:29:31.120Z,61.50
2023-04-09T02:33:12.845Z,61.50
2023-04-09T02:36:54.586Z,61.60
2023-04-09T02:40:36.279Z,61.80
2023-04-09T02:44:18.030Z,61.80
2023-04-09T02:47:59.744Z,61.80
2023-04-09T02:51:41.479Z,61.80
2023-04-09T02:55:23.300Z,61.90
2023-04-09T02:59:05.025Z,62.10
2023-04-09T03:02:46.842Z,62.30
2023-04-09T03:06:28.772Z,62.50
2023-04-09T03:10:11.162Z,62.50
2023-04-09T03:13:52.905Z,62.50
2023-04-09T03:17:34.693Z,62.50
2023-04-09T03:21:16.580Z,62.60
2023-04-09T03:24:58.273Z,62.50
2023-04-09T03:28:40.025Z,62.40
2023-04-09T03:32:21.741Z,62.30
2023-04-09T03:36:03.765Z,62.40
2023-04-09T03:39:45.533Z,62.50
2023-04-09T03:43:27.428Z,62.60
2023-04-09T03:47:09.152Z,62.30
2023-04-09T03:50:50.907Z,62.30
2023-04-09T03:54:32.997Z,62.50
2023-04-09T03:58:14.693Z,62.80
2023-04-09T04:01:56.641Z,63.00
2023-04-09T04:05:38.353Z,63.20
2023-04-09T04:09:20.156Z,63.20
2023-04-09T04:13:02.386Z,63.20
2023-04-09T04:16:44.225Z,63.30
2023-04-09T04:20:26.559Z,63.30
2023-04-09T04:24:08.298Z,63.30
2023-04-09T04:27:49.986Z,63.30
2023-04-09T04:31:31.763Z,63.40
2023-04-09T04:35:13.677Z,63.60
2023-04-09T04:38:55.480Z,63.50
2023-04-09T04:42:37.291Z,63.50
2023-04-09T04:46:20.567Z,63.60
2023-04-09T04:50:02.543Z,63.60
2023-04-09T04:53:44.279Z,63.80
2023-04-09T04:57:25.981Z,64.00
2023-04-09T05:01:07.913Z,63.90
2023-04-09T05:04:49.638Z,63.90
2023-04-09T05:08:31.764Z,64.20
2023-04-09T05:12:15.144Z,64.50
2023-04-09T05:15:56.846Z,64.70
2023-04-09T05:19:38.608Z,64.60
2023-04-09T05:23:20.332Z,64.70
2023-04-09T05:27:02.057Z,64.70
2023-04-09T05:30:47.440Z,64.70
2023-04-09T05:34:29.352Z,65.00
2023-04-09T05:38:11.201Z,64.90
2023-04-09T05:41:52.976Z,65.00
2023-04-09T05:45:34.680Z,65.10
2023-04-09T05:49:16.426Z,65.20
2023-04-09T05:52:58.142Z,65.20
2023-04-09T05:56:39.876Z,65.50
2023-04-09T06:00:21.997Z,65.90
2023-04-09T06:04:04.025Z,67.50
2023-04-09T06:07:46.186Z,66.80
2023-04-09T06:11:27.935Z,66.60
2023-04-09T06:15:10.233Z,67.00
2023-04-09T06:18:54.473Z,67.80
2023-04-09T06:22:36.352Z,68.10
2023-04-09T06:26:18.038Z,69.80
2023-04-09T06:29:59.745Z,69.70
2023-04-09T06:33:41.473Z,70.50
2023-04-09T06:37:23.154Z,70.00
2023-04-09T06:41:08.346Z,71.90
2023-04-09T06:44:50.534Z,72.40
2023-04-09T06:48:32.455Z,73.40
2023-04-09T06:52:14.158Z,72.30
2023-04-09T06:55:57.092Z,73.60
2023-04-09T06:59:38.995Z,75.30
2023-04-09T07:03:21.152Z,73.60
2023-04-09T07:07:03.165Z,73.50
2023-04-09T07:10:47.270Z,74.10
2023-04-09T07:14:29.013Z,74.10
2023-04-09T07:18:11.131Z,74.60
2023-04-09T07:21:52.954Z,73.90
2023-04-09T07:25:34.669Z,75.00
2023-04-09T07:29:16.346Z,75.20
2023-04-09T07:32:58.269Z,75.20
2023-04-09T07:36:41.236Z,75.10
2023-04-09T07:40:23.198Z,75.00
2023-04-09T07:44:06.388Z,75.40
2023-04-09T07:47:48.443Z,75.90
2023-04-09T07:51:31.464Z,75.50
2023-04-09T07:55:13.172Z,75.90
2023-04-09T07:58:55.166Z,76.10
2023-04-09T08:02:36.975Z,76.70
2023-04-09T08:06:18.742Z,75.80
2023-04-09T08:10:00.418Z,75.50
2023-04-09T08:13:42.155Z,74.80
2023-04-09T08:17:24.600Z,75.60
2023-04-09T08:21:07.100Z,74.90
2023-04-09T08:24:54.053Z,74.80
2023-04-09T08:28:35.784Z,74.40
2023-04-09T08:32:17.705Z,74.40
2023-04-09T08:36:00.842Z,73.70
2023-04-09T08:39:44.513Z,73.30
2023-04-09T08:43:41.953Z,73.60
2023-04-09T08:47:31.075Z,73.10
2023-04-09T08:51:17.031Z,72.70
2023-04-09T08:54:58.781Z,72.50
2023-04-09T08:58:45.298Z,72.70
2023-04-09T09:02:27.107Z,72.70
2023-04-09T09:06:22.013Z,72.90
2023-04-09T09:10:04.551Z,73.30
2023-04-09T09:13:46.393Z,72.90
2023-04-09T09:17:28.246Z,72.70
2023-04-09T09:21:14.748Z,72.40
2023-04-09T09:24:57.409Z,72.30
2023-04-09T09:28:39.220Z,72.30
2023-04-09T09:32:23.466Z,72.10
2023-04-09T09:36:05.694Z,71.70
2023-04-09T09:39:47.457Z,71.60
2023-04-09T09:43:41.244Z,71.10
2023-04-09T09:47:25.189Z,70.90
2023-04-09T09:51:11.812Z,70.70
2023-04-09T09:54:55.786Z,70.40
2023-04-09T09:58:54.833Z,70.20
2023-04-09T10:02:47.677Z,69.60
2023-04-09T10:06:30.852Z,69.30
2023-04-09T10:10:12.647Z,68.90
2023-04-09T10:13:58.847Z,68.70
2023-04-09T10:17:40.956Z,68.50
2023-04-09T10:21:25.453Z,68.30
2023-04-09T10:25:08.092Z,67.90
2023-04-09T10:29:06.989Z,67.50
2023-04-09T10:32:48.708Z,66.70
2023-04-09T10:36:31.835Z,66.80
2023-04-09T10:40:20.509Z,66.30
2023-04-09T10:44:06.573Z,65.70
2023-04-09T10:47:51.609Z,65.30
2023-04-09T10:51:38.796Z,65.60
2023-04-09T10:55:39.544Z,65.10
2023-04-09T10:59:21.260Z,63.20
2023-04-09T11:03:04.248Z,64.10
2023-04-09T11:06:47.418Z,64.10
2023-04-09T11:10:29.347Z,63.90
2023-04-09T11:14:11.107Z,63.60
2023-04-09T11:17:53.191Z,63.60
2023-04-09T11:21:36.332Z,63.40
2023-04-09T11:25:22.925Z,63.40
2023-04-09T11:29:09.176Z,63.30
2023-04-09T11:32:51.247Z,62.80
2023-04-09T11:36:34.804Z,62.70
2023-04-09T11:40:24.843Z,61.90
2023-04-09T11:44:08.161Z,60.80
2023-04-09T11:47:50.195Z,59.60
2023-04-09T11:51:32.692Z,61.00
2023-04-09T11:55:27.395Z,59.90
2023-04-09T11:59:10.073Z,58.10
2023-04-09T12:02:59.668Z,59.90
2023-04-09T12:06:42.629Z,57.30
2023-04-09T12:10:32.500Z,58.70
2023-04-09T12:14:18.581Z,57.90
2023-04-09T12:18:01.054Z,57.00
2023-04-09T12:21:58.342Z,56.50
2023-04-09T12:25:42.151Z,52.70
2023-04-09T12:29:25.899Z,55.60
2023-04-09T12:33:10.260Z,55.30
2023-04-09T12:36:52.748Z,56.50
2023-04-09T12:40:36.434Z,55.20
2023-04-09T12:44:18.139Z,55.00
2023-04-09T12:47:59.991Z,54.20
2023-04-09T12:51:41.735Z,54.20
2023-04-09T12:55:23.448Z,54.10
2023-04-09T12:59:05.992Z,53.90
2023-04-09T13:02:47.961Z,52.80
2023-04-09T13:06:29.840Z,52.50
2023-04-09T13:10:11.546Z,52.90
2023-04-09T13:13:53.705Z,52.70
2023-04-09T13:17:35.765Z,52.90
2023-04-09T13:21:18.839Z,52.90
2023-04-09T13:25:00.740Z,51.80
2023-04-09T13:28:42.441Z,50.70
2023-04-09T13:32:24.421Z,52.20
2023-04-09T13:36:06.711Z,50.90
2023-04-09T13:39:48.438Z,51.80
2023-04-09T13:43:30.186Z,50.90
2023-04-09T13:47:13.220Z,51.20
2023-04-09T13:50:55.018Z,51.20
2023-04-09T13:54:37.409Z,51.10
2023-04-09T13:58:20.044Z,51.20
2023-04-09T14:02:02.153Z,50.90
2023-04-09T14:05:43.931Z,50.50
2023-04-09T14:09:25.643Z,50.40
2023-04-09T14:13:10.476Z,50.20
2023-04-09T14:16:52.163Z,50.10
2023-04-09T14:20:35.530Z,48.30
2023-04-09T14:24:17.291Z,49.40
2023-04-09T14:27:59.111Z,49.20
2023-04-09T14:31:42.646Z,48.70
2023-04-09T14:35:24.618Z,49.10
2023-04-09T14:39:06.451Z,49.30
2023-04-09T14:42:48.594Z,49.30
2023-04-09T14:46:30.355Z,49.70
2023-04-09T14:50:12.898Z,50.00
2023-04-09T14:53:54.751Z,49.80
2023-04-09T14:57:36.685Z,50.00
2023-04-09T15:01:18.753Z,50.30
2023-04-09T15:05:01.066Z,50.40
2023-04-09T15:08:42.799Z,50.70
2023-04-09T15:12:24.640Z,50.90
2023-04-09T15:16:06.969Z,50.90
2023-04-09T15:19:48.768Z,51.00
2023-04-09T15:23:30.694Z,51.20
2023-04-09T15:27:12.418Z,51.60
2023-04-09T15:30:54.970Z,51.70
2023-04-09T15:34:36.866Z,51.80
2023-04-09T15:38:21.403Z,52.10
2023-04-09T15:42:03.339Z,52.40
2023-04-09T15:45:45.305Z,52.60
2023-04-09T15:49:27.136Z,52.70
2023-04-09T15:53:08.916Z,52.90
2023-04-09T15:56:50.624Z,53.10
2023-04-09T16:00:32.312Z,53.30
2023-04-09T16:04:15.406Z,53.50
2023-04-09T16:07:59.733Z,53.60
2023-04-09T16:11:41.759Z,53.50
2023-04-09T16:15:23.442Z,53.30
2023-04-09T16:19:05.317Z,53.00
2023-04-09T16:22:47.239Z,53.00
2023-04-09T16:26:28.986Z,52.80
2023-04-09T16:30:11.175Z,52.80
2023-04-09T16:33:52.973Z,52.90
2023-04-09T16:37:35.301Z,52.30
2023-04-09T16:41:17.011Z,52.70
2023-04-09T16:44:58.705Z,52.80
2023-04-09T16:48:41.753Z,51.90
2023-04-09T16:52:23.648Z,52.10
2023-04-09T16:56:06.637Z,52.10
2023-04-09T16:59:48.424Z,52.20
2023-04-09T17:03:30.558Z,52.10
2023-04-09T17:07:12.418Z,51.80
2023-04-09T17:11:01.747Z,51.80
2023-04-09T17:14:44.432Z,51.60
2023-04-09T17:18:26.405Z,52.00
2023-04-09T17:22:09.279Z,52.20
2023-04-09T17:25:51.004Z,52.40
2023-04-09T17:29:32.713Z,52.50
2023-04-09T17:33:14.628Z,52.70
2023-04-09T17:36:57.311Z,52.80
2023-04-09T17:40:39.089Z,53.00
2023-04-09T17:44:20.828Z,53.10
2023-04-09T17:48:02.909Z,53.20
2023-04-09T17:51:44.680Z,53.50
2023-04-09T17:55:27.264Z,53.70
2023-04-09T17:59:08.949Z,53.90
2023-04-09T18:02:54.437Z,54.00
2023-04-09T18:06:36.335Z,54.40
2023-04-09T18:10:18.097Z,54.80
2023-04-09T18:13:59.830Z,55.10
2023-04-09T18:17:41.718Z,55.20
2023-04-09T18:21:24.775Z,55.70
2023-04-09T18:25:07.221Z,55.70
2023-04-09T18:28:48.979Z,55.80
2023-04-09T18:32:31.064Z,55.90
2023-04-09T18:36:12.902Z,56.30
2023-04-09T18:39:54.744Z,56.20
2023-04-09T18:43:36.563Z,56.60
2023-04-09T18:47:18.392Z,56.70
2023-04-09T18:51:02.973Z,57.10
2023-04-09T18:54:44.679Z,57.10
2023-04-09T18:58:26.691Z,57.70
2023-04-09T19:02:08.655Z,57.60
2023-04-09T19:05:51.453Z,57.60
2023-04-09T19:09:33.608Z,57.60
2023-04-09T19:13:15.358Z,57.60
2023-04-09T19:16:58.671Z,58.10
2023-04-09T19:20:40.444Z,58.00
2023-04-09T19:24:22.166Z,58.10
2023-04-09T19:28:03.849Z,58.30
2023-04-09T19:31:46.384Z,58.80
2023-04-09T19:35:28.606Z,58.60
2023-04-09T19:39:11.079Z,58.60
2023-04-09T19:42:52.767Z,58.70
2023-04-09T19:46:34.669Z,58.90
2023-04-09T19:50:16.744Z,58.70
2023-04-09T19:53:58.497Z,59.00
2023-04-09T19:57:40.889Z,59.40
2023-04-09T20:01:22.811Z,59.70
2023-04-09T20:05:04.855Z,59.50
2023-04-09T20:08:46.723Z,59.40
2023-04-09T20:12:29.504Z,59.50
2023-04-09T20:16:11.300Z,59.60
2023-04-09T20:19:53.508Z,59.50
2023-04-09T20:23:35.658Z,60.00
2023-04-09T20:27:18.489Z,59.60
2023-04-09T20:31:03.078Z,59.70
2023-04-09T20:34:44.843Z,59.80
2023-04-09T20:38:26.648Z,60.00
2023-04-09T20:42:08.324Z,60.10
2023-04-09T20:45:50.178Z,60.30
2023-04-09T20:49:31.992Z,60.20
2023-04-09T20:53:13.753Z,60.40
2023-04-09T20:56:55.926Z,60.50
2023-04-09T21:00:37.642Z,60.40
2023-04-09T21:04:19.593Z,61.20
2023-04-09T21:08:01.508Z,61.10
2023-04-09T21:11:43.253Z,61.20
2023-04-09T21:15:25.205Z,61.10
2023-04-09T21:19:07.228Z,61.10
2023-04-09T21:22:49.010Z,61.00
2023-04-09T21:26:38.643Z,61.00
2023-04-09T21:30:32.273Z,61.20
2023-04-09T21:34:14.089Z,61.30
2023-04-09T21:37:56.730Z,61.40
2023-04-09T21:41:39.300Z,61.30
2023-04-09T21:45:21.170Z,61.80
2023-04-09T21:49:03.627Z,61.70
2023-04-09T21:52:46.775Z,62.20
2023-04-09T21:56:28.476Z,62.50
2023-04-09T22:00:11.100Z,62.30
2023-04-09T22:03:52.959Z,62.60
2023-04-09T22:07:37.204Z,62.90
2023-04-09T22:11:19.522Z,63.50
2023-04-09T22:15:01.473Z,63.40
2023-04-09T22:18:43.160Z,63.30
2023-04-09T22:22:25.039Z,63.80
2023-04-09T22:26:06.856Z,64.70
2023-04-09T22:29:48.555Z,64.00
2023-04-09T22:33:30.432Z,64.60
2023-04-09T22:37:12.436Z,65.80
2023-04-09T22:40:57.030Z,65.30
2023-04-09T22:44:40.058Z,65.20
2023-04-09T22:48:22.790Z,66.30
2023-04-09T22:52:05.561Z,66.50
2023-04-09T22:55:50.751Z,67.10
2023-04-09T22:59:40.015Z,66.60
2023-04-09T23:03:22.675Z,66.80
2023-04-09T23:07:04.728Z,67.50
2023-04-09T23:10:46.532Z,67.60
2023-04-09T23:14:28.317Z,68.40
2023-04-09T23:18:10.895Z,67.90
2023-04-09T23:21:52.632Z,68.20
2023-04-09T23:25:34.459Z,68.40
2023-04-09T23:29:16.156Z,68.70
2023-04-09T23:32:58.225Z,68.90
2023-04-09T23:36:40.044Z,69.30
2023-04-09T23:40:21.893Z,69.90
2023-04-09T23:44:03.776Z,71.10
2023-04-09T23:47:46.193Z,71.00
2023-04-09T23:51:27.981Z,71.30
2023-04-09T23:55:10.758Z,71.20
2023-04-09T23:58:52.528Z,72.40
